createdAt,value
2023-04-07T00:00:43.259Z,458.00
2023-04-07T00:01:42.953Z,459.00
2023-04-07T00:02:44.381Z,457.00
2023-04-07T00:03:43.180Z,458.00
2023-04-07T00:04:43.070Z,458.00
2023-04-07T00:05:43.029Z,463.00
2023-04-07T00:06:43.021Z,462.00
2023-04-07T00:07:52.996Z,460.00
2023-04-07T00:08:44.023Z,457.00
2023-04-07T00:09:43.016Z,457.00
2023-04-07T00:10:43.012Z,458.00
2023-04-07T00:11:43.125Z,460.00
2023-04-07T00:12:43.010Z,461.00
2023-04-07T00:13:43.025Z,461.00
2023-04-07T00:14:43.796Z,459.00
2023-04-07T00:15:42.979Z,458.00
2023-04-07T00:16:42.973Z,455.00
2023-04-07T00:17:43.034Z,455.00
2023-04-07T00:18:42.974Z,457.00
2023-04-07T00:19:42.923Z,455.00
2023-04-07T00:20:42.954Z,454.00
2023-04-07T00:21:42.917Z,455.00
2023-04-07T00:22:42.949Z,458.00
2023-04-07T00:23:42.922Z,458.00
2023-04-07T00:24:42.958Z,458.00
2023-04-07T00:25:42.952Z,459.00
2023-04-07T00:26:42.908Z,461.00
2023-04-07T00:27:42.932Z,465.00
2023-04-07T00:28:42.893Z,464.00
2023-04-07T00:29:42.906Z,462.00
2023-04-07T00:30:42.938Z,461.00
2023-04-07T00:31:42.981Z,461.00
2023-04-07T00:32:42.973Z,461.00
2023-04-07T00:33:43.282Z,463.00
2023-04-07T00:34:43.169Z,463.00
2023-04-07T00:35:43.207Z,462.00
2023-04-07T00:36:43.160Z,463.00
2023-04-07T00:37:44.919Z,463.00
2023-04-07T00:38:43.180Z,460.00
2023-04-07T00:39:43.206Z,458.00
2023-04-07T00:40:43.284Z,457.00
2023-04-07T00:41:43.245Z,457.00
2023-04-07T00:42:43.211Z,456.00
2023-04-07T00:43:43.223Z,458.00
2023-04-07T00:44:43.249Z,459.00
2023-04-07T00:45:43.323Z,456.00
2023-04-07T00:46:43.253Z,456.00
2023-04-07T00:47:43.290Z,459.00
2023-04-07T00:48:43.276Z,461.00
2023-04-07T00:49:43.255Z,462.00
2023-04-07T00:50:43.250Z,462.00
2023-04-07T00:51:43.402Z,461.00
2023-04-07T00:52:43.299Z,461.00
2023-04-07T00:53:43.327Z,459.00
2023-04-07T00:54:43.289Z,459.00
2023-04-07T00:55:43.311Z,459.00
2023-04-07T00:56:43.863Z,458.00
2023-04-07T00:57:43.337Z,456.00
2023-04-07T00:58:43.371Z,457.00
2023-04-07T00:59:43.379Z,458.00
2023-04-07T01:00:44.276Z,459.00
2023-04-07T01:01:43.467Z,458.00
2023-04-07T01:02:43.594Z,462.00
2023-04-07T01:03:43.836Z,463.00
2023-04-07T01:04:43.548Z,464.00
2023-04-07T01:05:43.491Z,466.00
2023-04-07T01:06:43.505Z,467.00
2023-04-07T01:07:43.525Z,463.00
2023-04-07T01:08:43.502Z,461.00
2023-04-07T01:09:43.567Z,461.00
2023-04-07T01:10:43.536Z,461.00
2023-04-07T01:11:43.567Z,460.00
2023-04-07T01:12:43.540Z,460.00
2023-04-07T01:13:43.534Z,461.00
2023-04-07T01:14:43.564Z,461.00
2023-04-07T01:15:43.570Z,461.00
2023-04-07T01:16:43.539Z,461.00
2023-04-07T01:17:43.546Z,462.00
2023-04-07T01:18:43.535Z,463.00
2023-04-07T01:19:43.553Z,460.00
2023-04-07T01:20:43.624Z,457.00
2023-04-07T01:21:43.547Z,457.00
2023-04-07T01:22:43.569Z,456.00
2023-04-07T01:23:43.518Z,454.00
2023-04-07T01:24:43.561Z,454.00
2023-04-07T01:25:43.537Z,452.00
2023-04-07T01:26:43.593Z,451.00
2023-04-07T01:27:43.530Z,452.00
2023-04-07T01:28:43.499Z,453.00
2023-04-07T01:29:43.524Z,454.00
2023-04-07T01:30:43.569Z,455.00
2023-04-07T01:31:46.479Z,457.00
2023-04-07T01:32:43.585Z,458.00
2023-04-07T01:33:43.497Z,457.00
2023-04-07T01:34:43.563Z,454.00
2023-04-07T01:35:43.533Z,455.00
2023-04-07T01:36:43.585Z,453.00
2023-04-07T01:37:43.508Z,452.00
2023-04-07T01:38:44.328Z,453.00
2023-04-07T01:39:43.466Z,455.00
2023-04-07T01:40:43.498Z,456.00
2023-04-07T01:41:43.444Z,454.00
2023-04-07T01:42:43.517Z,452.00
2023-04-07T01:43:44.488Z,451.00
2023-04-07T01:44:43.442Z,451.00
2023-04-07T01:45:43.463Z,451.00
2023-04-07T01:46:43.460Z,452.00
2023-04-07T01:47:43.450Z,454.00
2023-04-07T01:48:43.416Z,458.00
2023-04-07T01:49:43.388Z,457.00
2023-04-07T01:50:43.400Z,456.00
2023-04-07T01:51:43.389Z,455.00
2023-04-07T01:52:43.395Z,455.00
2023-04-07T01:53:43.407Z,458.00
2023-04-07T01:54:43.375Z,461.00
2023-04-07T01:55:43.418Z,460.00
2023-04-07T01:56:43.387Z,459.00
2023-04-07T01:57:43.381Z,457.00
2023-04-07T01:58:43.369Z,458.00
2023-04-07T01:59:43.343Z,458.00
2023-04-07T02:00:43.456Z,457.00
2023-04-07T02:01:43.503Z,458.00
2023-04-07T02:02:43.380Z,457.00
2023-04-07T02:03:43.416Z,457.00
2023-04-07T02:04:43.333Z,459.00
2023-04-07T02:05:43.339Z,456.00
2023-04-07T02:06:43.305Z,456.00
2023-04-07T02:07:43.316Z,456.00
2023-04-07T02:08:43.309Z,452.00
2023-04-07T02:09:43.327Z,453.00
2023-04-07T02:10:43.321Z,456.00
2023-04-07T02:11:43.332Z,459.00
2023-04-07T02:12:43.305Z,458.00
2023-04-07T02:13:43.270Z,458.00
2023-04-07T02:14:43.302Z,456.00
2023-04-07T02:15:43.259Z,456.00
2023-04-07T02:16:43.349Z,455.00
2023-04-07T02:17:43.289Z,457.00
2023-04-07T02:18:43.258Z,457.00
2023-04-07T02:19:43.220Z,458.00
2023-04-07T02:20:43.345Z,463.00
2023-04-07T02:21:43.215Z,464.00
2023-04-07T02:22:43.229Z,464.00
2023-04-07T02:23:43.251Z,465.00
2023-04-07T02:24:43.851Z,465.00
2023-04-07T02:25:43.288Z,463.00
2023-04-07T02:26:43.830Z,462.00
2023-04-07T02:27:43.173Z,460.00
2023-04-07T02:28:43.182Z,459.00
2023-04-07T02:29:43.151Z,457.00
2023-04-07T02:30:43.205Z,457.00
2023-04-07T02:31:43.248Z,459.00
2023-04-07T02:32:43.898Z,460.00
2023-04-07T02:33:43.132Z,462.00
2023-04-07T02:34:43.129Z,463.00
2023-04-07T02:35:43.836Z,462.00
2023-04-07T02:36:43.139Z,462.00
2023-04-07T02:37:43.963Z,460.00
2023-04-07T02:38:43.142Z,462.00
2023-04-07T02:39:43.117Z,461.00
2023-04-07T02:40:43.140Z,459.00
2023-04-07T02:41:43.099Z,458.00
2023-04-07T02:42:43.135Z,458.00
2023-04-07T02:43:43.064Z,458.00
2023-04-07T02:44:43.118Z,457.00
2023-04-07T02:45:43.131Z,459.00
2023-04-07T02:46:43.090Z,461.00
2023-04-07T02:47:43.118Z,461.00
2023-04-07T02:48:43.026Z,463.00
2023-04-07T02:49:43.021Z,463.00
2023-04-07T02:50:43.050Z,463.00
2023-04-07T02:51:43.034Z,462.00
2023-04-07T02:52:43.024Z,461.00
2023-04-07T02:53:43.065Z,458.00
2023-04-07T02:54:43.024Z,456.00
2023-04-07T02:55:42.985Z,458.00
2023-04-07T02:56:43.005Z,459.00
2023-04-07T02:57:43.028Z,459.00
2023-04-07T02:58:43.008Z,460.00
2023-04-07T02:59:42.978Z,461.00
2023-04-07T03:00:42.968Z,462.00
2023-04-07T03:01:42.972Z,463.00
2023-04-07T03:02:43.141Z,465.00
2023-04-07T03:03:43.035Z,465.00
2023-04-07T03:04:43.039Z,464.00
2023-04-07T03:05:42.981Z,465.00
2023-04-07T03:06:43.885Z,463.00
2023-04-07T03:07:42.887Z,460.00
2023-04-07T03:08:42.869Z,460.00
2023-04-07T03:09:42.877Z,461.00
2023-04-07T03:10:42.940Z,464.00
2023-04-07T03:11:42.907Z,465.00
2023-04-07T03:12:42.986Z,465.00
2023-04-07T03:13:42.943Z,468.00
2023-04-07T03:14:42.958Z,466.00
2023-04-07T03:15:42.973Z,467.00
2023-04-07T03:16:42.957Z,464.00
2023-04-07T03:17:43.006Z,464.00
2023-04-07T03:18:43.128Z,464.00
2023-04-07T03:19:43.064Z,463.00
2023-04-07T03:20:43.337Z,464.00
2023-04-07T03:21:43.094Z,466.00
2023-04-07T03:22:43.029Z,464.00
2023-04-07T03:23:43.083Z,466.00
2023-04-07T03:24:43.100Z,466.00
2023-04-07T03:25:43.078Z,465.00
2023-04-07T03:26:43.118Z,466.00
2023-04-07T03:27:43.180Z,464.00
2023-04-07T03:28:43.170Z,465.00
2023-04-07T03:29:43.149Z,465.00
2023-04-07T03:30:43.855Z,468.00
2023-04-07T03:31:43.183Z,469.00
2023-04-07T03:32:43.225Z,467.00
2023-04-07T03:33:43.312Z,468.00
2023-04-07T03:34:43.268Z,468.00
2023-04-07T03:35:43.332Z,467.00
2023-04-07T03:36:43.329Z,467.00
2023-04-07T03:37:43.356Z,465.00
2023-04-07T03:38:43.334Z,463.00
2023-04-07T03:39:43.350Z,463.00
2023-04-07T03:40:43.373Z,461.00
2023-04-07T03:41:43.327Z,462.00
2023-04-07T03:42:43.343Z,463.00
2023-04-07T03:43:44.334Z,463.00
2023-04-07T03:44:43.445Z,465.00
2023-04-07T03:45:43.412Z,466.00
2023-04-07T03:46:43.431Z,466.00
2023-04-07T03:47:43.440Z,466.00
2023-04-07T03:48:43.452Z,465.00
2023-04-07T03:49:43.452Z,462.00
2023-04-07T03:50:43.485Z,461.00
2023-04-07T03:51:43.525Z,460.00
2023-04-07T03:52:43.485Z,463.00
2023-04-07T03:53:43.523Z,463.00
2023-04-07T03:54:43.496Z,462.00
2023-04-07T03:55:43.560Z,459.00
2023-04-07T03:56:44.345Z,457.00
2023-04-07T03:57:43.583Z,456.00
2023-04-07T03:58:44.359Z,455.00
2023-04-07T03:59:43.636Z,455.00
2023-04-07T04:00:43.668Z,455.00
2023-04-07T04:01:43.721Z,456.00
2023-04-07T04:02:43.736Z,461.00
2023-04-07T04:03:43.791Z,460.00
2023-04-07T04:04:43.773Z,462.00
2023-04-07T04:05:43.749Z,461.00
2023-04-07T04:06:43.758Z,462.00
2023-04-07T04:07:43.756Z,460.00
2023-04-07T04:08:43.791Z,460.00
2023-04-07T04:09:43.776Z,459.00
2023-04-07T04:10:43.804Z,459.00
2023-04-07T04:11:43.861Z,459.00
2023-04-07T04:12:43.849Z,465.00
2023-04-07T04:13:43.837Z,465.00
2023-04-07T04:14:43.862Z,465.00
2023-04-07T04:15:43.917Z,467.00
2023-04-07T04:16:44.351Z,464.00
2023-04-07T04:17:44.900Z,464.00
2023-04-07T04:18:43.916Z,464.00
2023-04-07T04:19:43.935Z,464.00
2023-04-07T04:20:43.949Z,465.00
2023-04-07T04:21:44.029Z,461.00
2023-04-07T04:22:43.996Z,463.00
2023-04-07T04:23:44.040Z,464.00
2023-04-07T04:24:44.034Z,464.00
2023-04-07T04:25:44.113Z,462.00
2023-04-07T04:26:44.051Z,462.00
2023-04-07T04:27:44.106Z,465.00
2023-04-07T04:28:44.116Z,462.00
2023-04-07T04:29:44.130Z,463.00
2023-04-07T04:30:44.122Z,464.00
2023-04-07T04:31:44.237Z,463.00
2023-04-07T04:32:44.204Z,461.00
2023-04-07T04:33:44.270Z,460.00
2023-04-07T04:34:44.226Z,458.00
2023-04-07T04:35:44.239Z,460.00
2023-04-07T04:36:44.409Z,459.00
2023-04-07T04:37:44.268Z,459.00
2023-04-07T04:38:44.365Z,460.00
2023-04-07T04:39:44.291Z,461.00
2023-04-07T04:40:44.295Z,461.00
2023-04-07T04:41:44.379Z,461.00
2023-04-07T04:42:44.360Z,465.00
2023-04-07T04:43:45.172Z,467.00
2023-04-07T04:44:44.350Z,469.00
2023-04-07T04:45:44.392Z,472.00
2023-04-07T04:46:44.490Z,472.00
2023-04-07T04:47:44.499Z,472.00
2023-04-07T04:48:44.420Z,470.00
2023-04-07T04:49:44.448Z,467.00
2023-04-07T04:50:44.477Z,465.00
2023-04-07T04:51:44.525Z,463.00
2023-04-07T04:52:44.533Z,466.00
2023-04-07T04:53:44.543Z,464.00
2023-04-07T04:54:44.568Z,464.00
2023-04-07T04:55:44.614Z,461.00
2023-04-07T04:56:44.637Z,460.00
2023-04-07T04:57:44.646Z,462.00
2023-04-07T04:58:44.633Z,460.00
2023-04-07T04:59:44.687Z,458.00
2023-04-07T05:00:44.803Z,460.00
2023-04-07T05:01:44.820Z,459.00
2023-04-07T05:02:44.953Z,458.00
2023-04-07T05:03:44.869Z,457.00
2023-04-07T05:04:45.038Z,458.00
2023-04-07T05:05:44.822Z,458.00
2023-04-07T05:06:44.830Z,460.00
2023-04-07T05:07:44.859Z,460.00
2023-04-07T05:08:44.961Z,461.00
2023-04-07T05:09:44.888Z,464.00
2023-04-07T05:10:46.662Z,468.00
2023-04-07T05:11:45.037Z,466.00
2023-04-07T05:12:45.385Z,465.00
2023-04-07T05:13:44.977Z,466.00
2023-04-07T05:14:45.035Z,466.00
2023-04-07T05:15:45.028Z,466.00
2023-04-07T05:16:45.045Z,465.00
2023-04-07T05:17:45.178Z,468.00
2023-04-07T05:18:45.097Z,467.00
2023-04-07T05:19:45.162Z,466.00
2023-04-07T05:20:45.269Z,461.00
2023-04-07T05:21:45.229Z,463.00
2023-04-07T05:22:45.217Z,467.00
2023-04-07T05:23:45.235Z,469.00
2023-04-07T05:24:45.253Z,467.00
2023-04-07T05:25:45.264Z,465.00
2023-04-07T05:26:45.308Z,467.00
2023-04-07T05:27:45.295Z,466.00
2023-04-07T05:28:45.325Z,467.00
2023-04-07T05:29:45.324Z,466.00
2023-04-07T05:30:45.365Z,464.00
2023-04-07T05:31:45.402Z,465.00
2023-04-07T05:32:45.400Z,466.00
2023-04-07T05:33:45.347Z,466.00
2023-04-07T05:34:45.397Z,466.00
2023-04-07T05:35:45.390Z,466.00
2023-04-07T05:36:45.357Z,464.00
2023-04-07T05:37:45.382Z,463.00
2023-04-07T05:38:45.412Z,463.00
2023-04-07T05:39:45.520Z,462.00
2023-04-07T05:40:45.548Z,464.00
2023-04-07T05:41:45.604Z,461.00
2023-04-07T05:42:46.363Z,463.00
2023-04-07T05:43:45.795Z,464.00
2023-04-07T05:44:45.879Z,465.00
2023-04-07T05:45:45.865Z,466.00
2023-04-07T05:46:45.873Z,469.00
2023-04-07T05:47:45.983Z,469.00
2023-04-07T05:48:45.993Z,469.00
2023-04-07T05:49:46.023Z,468.00
2023-04-07T05:50:46.085Z,467.00
2023-04-07T05:51:47.474Z,467.00
2023-04-07T05:52:46.282Z,462.00
2023-04-07T05:53:46.334Z,462.00
2023-04-07T05:54:46.359Z,463.00
2023-04-07T05:55:46.383Z,463.00
2023-04-07T05:56:46.453Z,461.00
2023-04-07T05:57:46.506Z,463.00
2023-04-07T05:58:46.479Z,462.00
2023-04-07T05:59:46.500Z,464.00
2023-04-07T06:00:46.579Z,465.00
2023-04-07T06:01:46.612Z,465.00
2023-04-07T06:02:46.728Z,464.00
2023-04-07T06:03:46.827Z,463.00
2023-04-07T06:04:46.663Z,464.00
2023-04-07T06:05:46.674Z,465.00
2023-04-07T06:06:46.695Z,468.00
2023-04-07T06:07:46.769Z,470.00
2023-04-07T06:08:46.778Z,470.00
2023-04-07T06:09:46.814Z,470.00
2023-04-07T06:10:46.828Z,471.00
2023-04-07T06:11:46.864Z,472.00
2023-04-07T06:12:46.857Z,471.00
2023-04-07T06:13:47.149Z,469.00
2023-04-07T06:14:46.965Z,466.00
2023-04-07T06:15:46.960Z,466.00
2023-04-07T06:16:47.050Z,468.00
2023-04-07T06:17:47.085Z,466.00
2023-04-07T06:18:47.120Z,467.00
2023-04-07T06:19:47.045Z,465.00
2023-04-07T06:20:47.114Z,464.00
2023-04-07T06:21:47.131Z,464.00
2023-04-07T06:22:47.199Z,463.00
2023-04-07T06:23:47.460Z,461.00
2023-04-07T06:24:47.166Z,463.00
2023-04-07T06:25:47.213Z,464.00
2023-04-07T06:26:47.255Z,464.00
2023-04-07T06:27:47.240Z,464.00
2023-04-07T06:28:47.305Z,464.00
2023-04-07T06:29:47.335Z,466.00
2023-04-07T06:30:47.375Z,469.00
2023-04-07T06:31:47.422Z,469.00
2023-04-07T06:32:47.461Z,470.00
2023-04-07T06:33:47.627Z,470.00
2023-04-07T06:34:47.476Z,471.00
2023-04-07T06:35:47.493Z,468.00
2023-04-07T06:36:47.544Z,464.00
2023-04-07T06:37:47.527Z,464.00
2023-04-07T06:38:47.533Z,464.00
2023-04-07T06:39:47.554Z,465.00
2023-04-07T06:40:47.578Z,467.00
2023-04-07T06:41:47.596Z,469.00
2023-04-07T06:42:47.612Z,468.00
2023-04-07T06:43:47.819Z,468.00
2023-04-07T06:44:47.968Z,464.00
2023-04-07T06:45:47.692Z,467.00
2023-04-07T06:46:47.685Z,467.00
2023-04-07T06:47:47.700Z,465.00
2023-04-07T06:48:47.723Z,467.00
2023-04-07T06:49:47.748Z,467.00
2023-04-07T06:50:47.823Z,466.00
2023-04-07T06:51:47.793Z,466.00
2023-04-07T06:52:47.803Z,464.00
2023-04-07T06:53:48.029Z,464.00
2023-04-07T06:54:47.902Z,466.00
2023-04-07T06:55:47.907Z,464.00
2023-04-07T06:56:47.916Z,463.00
2023-04-07T06:57:47.925Z,465.00
2023-04-07T06:58:47.917Z,467.00
2023-04-07T06:59:47.923Z,468.00
2023-04-07T07:00:48.052Z,470.00
2023-04-07T07:01:48.123Z,471.00
2023-04-07T07:02:48.168Z,470.00
2023-04-07T07:03:48.293Z,471.00
2023-04-07T07:04:48.082Z,469.00
2023-04-07T07:05:50.373Z,470.00
2023-04-07T07:06:48.113Z,469.00
2023-04-07T07:07:48.138Z,469.00
2023-04-07T07:08:48.154Z,469.00
2023-04-07T07:09:48.128Z,467.00
2023-04-07T07:10:48.139Z,465.00
2023-04-07T07:11:48.174Z,466.00
2023-04-07T07:12:48.112Z,468.00
2023-04-07T07:13:48.304Z,467.00
2023-04-07T07:14:48.109Z,466.00
2023-04-07T07:15:48.283Z,467.00
2023-04-07T07:16:48.145Z,467.00
2023-04-07T07:17:48.138Z,471.00
2023-04-07T07:18:48.143Z,472.00
2023-04-07T07:19:48.156Z,473.00
2023-04-07T07:20:48.369Z,474.00
2023-04-07T07:21:48.290Z,474.00
2023-04-07T07:22:48.260Z,474.00
2023-04-07T07:23:48.384Z,474.00
2023-04-07T07:24:48.341Z,477.00
2023-04-07T07:25:48.428Z,475.00
2023-04-07T07:26:48.429Z,472.00
2023-04-07T07:27:53.411Z,469.00
2023-04-07T07:28:48.465Z,467.00
2023-04-07T07:29:48.449Z,469.00
2023-04-07T07:30:48.531Z,469.00
2023-04-07T07:31:48.430Z,472.00
2023-04-07T07:32:48.512Z,473.00
2023-04-07T07:33:49.682Z,471.00
2023-04-07T07:34:48.437Z,472.00
2023-04-07T07:35:48.557Z,474.00
2023-04-07T07:36:48.632Z,473.00
2023-04-07T07:37:48.629Z,473.00
2023-04-07T07:38:48.699Z,471.00
2023-04-07T07:39:48.764Z,470.00
2023-04-07T07:40:51.403Z,470.00
2023-04-07T07:41:49.064Z,468.00
2023-04-07T07:42:49.150Z,465.00
2023-04-07T07:43:49.436Z,463.00
2023-04-07T07:44:49.225Z,464.00
2023-04-07T07:45:49.683Z,464.00
2023-04-07T07:46:49.484Z,466.00
2023-04-07T07:47:49.489Z,465.00
2023-04-07T07:48:49.500Z,468.00
2023-04-07T07:49:49.574Z,466.00
2023-04-07T07:50:49.597Z,466.00
2023-04-07T07:51:49.622Z,466.00
2023-04-07T07:52:49.681Z,471.00
2023-04-07T07:53:50.030Z,471.00
2023-04-07T07:54:49.772Z,472.00
2023-04-07T07:55:49.892Z,470.00
2023-04-07T07:56:49.868Z,471.00
2023-04-07T07:57:49.939Z,471.00
2023-04-07T07:58:49.949Z,468.00
2023-04-07T07:59:50.026Z,468.00
2023-04-07T08:00:50.192Z,469.00
2023-04-07T08:01:50.133Z,469.00
2023-04-07T08:02:50.205Z,469.00
2023-04-07T08:03:50.429Z,469.00
2023-04-07T08:04:50.290Z,471.00
2023-04-07T08:05:50.337Z,471.00
2023-04-07T08:06:50.359Z,471.00
2023-04-07T08:07:51.125Z,473.00
2023-04-07T08:08:50.438Z,474.00
2023-04-07T08:09:50.459Z,474.00
2023-04-07T08:10:50.536Z,471.00
2023-04-07T08:11:50.545Z,472.00
2023-04-07T08:12:50.673Z,471.00
2023-04-07T08:13:50.727Z,473.00
2023-04-07T08:14:50.694Z,474.00
2023-04-07T08:15:50.760Z,473.00
2023-04-07T08:16:50.802Z,473.00
2023-04-07T08:17:50.845Z,474.00
2023-04-07T08:18:50.835Z,474.00
2023-04-07T08:19:50.874Z,472.00
2023-04-07T08:20:50.913Z,472.00
2023-04-07T08:21:50.945Z,471.00
2023-04-07T08:22:50.963Z,472.00
2023-04-07T08:23:51.236Z,474.00
2023-04-07T08:24:51.052Z,476.00
2023-04-07T08:25:51.073Z,480.00
2023-04-07T08:26:51.082Z,480.00
2023-04-07T08:27:51.942Z,478.00
2023-04-07T08:28:51.199Z,478.00
2023-04-07T08:29:51.197Z,476.00
2023-04-07T08:30:51.934Z,476.00
2023-04-07T08:31:51.275Z,477.00
2023-04-07T08:32:51.350Z,474.00
2023-04-07T08:33:51.312Z,474.00
2023-04-07T08:34:51.308Z,476.00
2023-04-07T08:35:51.342Z,475.00
2023-04-07T08:36:51.393Z,474.00
2023-04-07T08:37:51.344Z,474.00
2023-04-07T08:38:53.951Z,473.00
2023-04-07T08:39:51.589Z,471.00
2023-04-07T08:40:51.606Z,471.00
2023-04-07T08:41:52.455Z,469.00
2023-04-07T08:42:51.621Z,475.00
2023-04-07T08:43:51.616Z,475.00
2023-04-07T08:44:51.674Z,477.00
2023-04-07T08:45:53.537Z,477.00
2023-04-07T08:46:51.718Z,476.00
2023-04-07T08:47:51.714Z,475.00
2023-04-07T08:48:51.713Z,476.00
2023-04-07T08:49:51.707Z,476.00
2023-04-07T08:50:51.683Z,474.00
2023-04-07T08:51:51.693Z,476.00
2023-04-07T08:52:51.687Z,474.00
2023-04-07T08:53:51.675Z,472.00
2023-04-07T08:54:51.753Z,471.00
2023-04-07T08:55:51.678Z,469.00
2023-04-07T08:56:51.755Z,467.00
2023-04-07T08:57:51.716Z,469.00
2023-04-07T08:58:51.703Z,468.00
2023-04-07T08:59:51.737Z,470.00
2023-04-07T09:00:51.787Z,470.00
2023-04-07T09:01:51.790Z,471.00
2023-04-07T09:02:51.754Z,472.00
2023-04-07T09:03:52.053Z,471.00
2023-04-07T09:04:51.758Z,473.00
2023-04-07T09:05:51.763Z,474.00
2023-04-07T09:06:51.823Z,475.00
2023-04-07T09:07:51.814Z,476.00
2023-04-07T09:08:51.910Z,477.00
2023-04-07T09:09:52.478Z,478.00
2023-04-07T09:10:52.049Z,476.00
2023-04-07T09:11:51.975Z,475.00
2023-04-07T09:12:52.012Z,475.00
2023-04-07T09:13:51.991Z,476.00
2023-04-07T09:14:52.023Z,476.00
2023-04-07T09:15:52.093Z,477.00
2023-04-07T09:16:52.146Z,477.00
2023-04-07T09:17:52.207Z,477.00
2023-04-07T09:18:52.275Z,478.00
2023-04-07T09:19:52.438Z,480.00
2023-04-07T09:20:52.309Z,475.00
2023-04-07T09:21:52.412Z,478.00
2023-04-07T09:22:52.454Z,479.00
2023-04-07T09:23:52.718Z,481.00
2023-04-07T09:24:52.660Z,479.00
2023-04-07T09:25:52.700Z,478.00
2023-04-07T09:26:52.774Z,476.00
2023-04-07T09:27:52.765Z,473.00
2023-04-07T09:28:52.815Z,473.00
2023-04-07T09:29:52.878Z,470.00
2023-04-07T09:30:52.962Z,470.00
2023-04-07T09:31:53.018Z,471.00
2023-04-07T09:32:53.132Z,467.00
2023-04-07T09:33:53.144Z,465.00
2023-04-07T09:34:53.188Z,466.00
2023-04-07T09:35:53.323Z,464.00
2023-04-07T09:36:53.325Z,466.00
2023-04-07T09:37:53.294Z,467.00
2023-04-07T09:38:53.357Z,468.00
2023-04-07T09:39:54.039Z,466.00
2023-04-07T09:40:53.424Z,466.00
2023-04-07T09:41:53.466Z,469.00
2023-04-07T09:42:53.567Z,471.00
2023-04-07T09:43:53.648Z,473.00
2023-04-07T09:44:54.492Z,473.00
2023-04-07T09:45:53.670Z,476.00
2023-04-07T09:46:53.697Z,477.00
2023-04-07T09:47:54.597Z,478.00
2023-04-07T09:48:53.834Z,479.00
2023-04-07T09:49:53.844Z,477.00
2023-04-07T09:50:53.854Z,474.00
2023-04-07T09:51:53.884Z,472.00
2023-04-07T09:52:54.013Z,469.00
2023-04-07T09:53:53.963Z,470.00
2023-04-07T09:54:54.542Z,469.00
2023-04-07T09:55:54.016Z,470.00
2023-04-07T09:56:54.030Z,468.00
2023-04-07T09:57:54.092Z,470.00
2023-04-07T09:58:54.251Z,472.00
2023-04-07T09:59:54.171Z,471.00
2023-04-07T10:00:54.234Z,471.00
2023-04-07T10:01:56.780Z,470.00
2023-04-07T10:02:54.262Z,469.00
2023-04-07T10:03:54.251Z,470.00
2023-04-07T10:04:54.254Z,473.00
2023-04-07T10:05:54.164Z,472.00
2023-04-07T10:06:54.159Z,474.00
2023-04-07T10:07:54.191Z,475.00
2023-04-07T10:08:54.145Z,475.00
2023-04-07T10:09:54.498Z,473.00
2023-04-07T10:10:54.197Z,471.00
2023-04-07T10:11:54.137Z,470.00
2023-04-07T10:12:54.116Z,468.00
2023-04-07T10:13:54.134Z,469.00
2023-04-07T10:14:54.128Z,471.00
2023-04-07T10:15:54.170Z,471.00
2023-04-07T10:16:54.103Z,469.00
2023-04-07T10:17:54.222Z,469.00
2023-04-07T10:18:54.088Z,469.00
2023-04-07T10:19:54.080Z,469.00
2023-04-07T10:20:54.093Z,469.00
2023-04-07T10:21:54.110Z,468.00
2023-04-07T10:22:54.096Z,468.00
2023-04-07T10:23:54.057Z,467.00
2023-04-07T10:24:54.015Z,468.00
2023-04-07T10:25:54.102Z,469.00
2023-04-07T10:26:54.074Z,470.00
2023-04-07T10:27:54.020Z,470.00
2023-04-07T10:28:54.037Z,470.00
2023-04-07T10:29:54.155Z,474.00
2023-04-07T10:30:54.095Z,472.00
2023-04-07T10:31:54.064Z,472.00
2023-04-07T10:32:54.061Z,472.00
2023-04-07T10:33:53.991Z,470.00
2023-04-07T10:34:53.986Z,467.00
2023-04-07T10:35:54.029Z,467.00
2023-04-07T10:36:53.929Z,469.00
2023-04-07T10:37:54.058Z,472.00
2023-04-07T10:38:54.479Z,472.00
2023-04-07T10:39:53.933Z,471.00
2023-04-07T10:40:54.013Z,471.00
2023-04-07T10:41:53.921Z,472.00
2023-04-07T10:42:54.047Z,472.00
2023-04-07T10:43:53.908Z,473.00
2023-04-07T10:44:53.918Z,472.00
2023-04-07T10:45:53.934Z,474.00
2023-04-07T10:46:53.908Z,474.00
2023-04-07T10:47:53.887Z,474.00
2023-04-07T10:48:53.845Z,475.00
2023-04-07T10:49:53.873Z,476.00
2023-04-07T10:50:54.086Z,476.00
2023-04-07T10:51:53.854Z,473.00
2023-04-07T10:52:53.824Z,472.00
2023-04-07T10:53:53.843Z,470.00
2023-04-07T10:54:53.827Z,468.00
2023-04-07T10:55:53.835Z,467.00
2023-04-07T10:56:53.889Z,467.00
2023-04-07T10:57:54.026Z,466.00
2023-04-07T10:58:53.989Z,467.00
2023-04-07T10:59:54.008Z,466.00
2023-04-07T11:00:54.127Z,468.00
2023-04-07T11:01:54.209Z,469.00
2023-04-07T11:02:54.554Z,468.00
2023-04-07T11:03:54.320Z,469.00
2023-04-07T11:04:54.458Z,467.00
2023-04-07T11:05:54.518Z,467.00
2023-04-07T11:06:54.512Z,466.00
2023-04-07T11:07:54.572Z,468.00
2023-04-07T11:08:54.645Z,468.00
2023-04-07T11:09:54.756Z,470.00
2023-04-07T11:10:55.006Z,470.00
2023-04-07T11:11:54.804Z,472.00
2023-04-07T11:12:54.828Z,473.00
2023-04-07T11:13:54.927Z,475.00
2023-04-07T11:14:55.039Z,476.00
2023-04-07T11:15:55.047Z,478.00
2023-04-07T11:16:55.048Z,481.00
2023-04-07T11:17:55.124Z,479.00
2023-04-07T11:18:55.178Z,477.00
2023-04-07T11:19:55.280Z,479.00
2023-04-07T11:20:55.254Z,478.00
2023-04-07T11:21:55.280Z,475.00
2023-04-07T11:22:55.322Z,472.00
2023-04-07T11:23:55.328Z,472.00
2023-04-07T11:24:55.335Z,475.00
2023-04-07T11:25:55.424Z,475.00
2023-04-07T11:26:55.437Z,476.00
2023-04-07T11:27:55.500Z,474.00
2023-04-07T11:28:55.484Z,475.00
2023-04-07T11:29:55.512Z,473.00
2023-04-07T11:30:55.527Z,473.00
2023-04-07T11:31:55.511Z,471.00
2023-04-07T11:32:55.549Z,469.00
2023-04-07T11:33:55.537Z,467.00
2023-04-07T11:34:55.549Z,466.00
2023-04-07T11:35:55.787Z,465.00
2023-04-07T11:36:55.551Z,464.00
2023-04-07T11:37:55.582Z,464.00
2023-04-07T11:38:55.596Z,465.00
2023-04-07T11:39:55.656Z,471.00
2023-04-07T11:40:55.629Z,471.00
2023-04-07T11:41:55.601Z,473.00
2023-04-07T11:42:55.602Z,473.00
2023-04-07T11:43:55.737Z,473.00
2023-04-07T11:44:55.661Z,473.00
2023-04-07T11:45:55.683Z,476.00
2023-04-07T11:46:55.750Z,476.00
2023-04-07T11:47:55.779Z,473.00
2023-04-07T11:48:56.528Z,471.00
2023-04-07T11:49:55.744Z,471.00
2023-04-07T11:50:55.894Z,468.00
2023-04-07T11:51:55.786Z,468.00
2023-04-07T11:52:55.853Z,469.00
2023-04-07T11:53:55.876Z,469.00
2023-04-07T11:54:55.892Z,468.00
2023-04-07T11:55:55.983Z,471.00
2023-04-07T11:56:56.010Z,472.00
2023-04-07T11:57:55.957Z,472.00
2023-04-07T11:58:55.961Z,471.00
2023-04-07T11:59:56.032Z,470.00
2023-04-07T12:00:56.002Z,471.00
2023-04-07T12:01:57.857Z,471.00
2023-04-07T12:02:56.164Z,475.00
2023-04-07T12:03:56.164Z,477.00
2023-04-07T12:04:56.046Z,476.00
2023-04-07T12:05:56.037Z,476.00
2023-04-07T12:06:56.100Z,475.00
2023-04-07T12:07:56.080Z,476.00
2023-04-07T12:08:56.043Z,476.00
2023-04-07T12:09:56.024Z,477.00
2023-04-07T12:10:56.041Z,476.00
2023-04-07T12:11:56.053Z,475.00
2023-04-07T12:12:58.092Z,478.00
2023-04-07T12:13:56.149Z,477.00
2023-04-07T12:14:56.013Z,477.00
2023-04-07T12:15:56.085Z,477.00
2023-04-07T12:16:56.134Z,477.00
2023-04-07T12:17:56.031Z,474.00
2023-04-07T12:18:56.536Z,471.00
2023-04-07T12:19:55.989Z,469.00
2023-04-07T12:20:55.978Z,469.00
2023-04-07T12:21:56.026Z,469.00
2023-04-07T12:22:55.993Z,470.00
2023-04-07T12:23:55.944Z,470.00
2023-04-07T12:24:55.932Z,470.00
2023-04-07T12:25:55.947Z,472.00
2023-04-07T12:26:56.073Z,472.00
2023-04-07T12:27:55.915Z,471.00
2023-04-07T12:28:55.907Z,473.00